Airfield :
LOGIN :

Register | Disclaimer

   EN    FR    IT 

 










Legend :    VFR   Marginal VFR   IFR   Intensive IFR   Very Intensive IFR
Visi :
Ceiling :
>= 8 km
>= 3000ft
5 to 8 km
1000 to 3000 ft
1500m to 5 km
500 to 1000 ft
800 to 1500m
200 to 500 ft
< 800m
< 200 ft
Symbols :   Thunderstorms  Fog  Heavy snow  Heavy precipitations  Wind > 20 kt
SIGMETs :     Misc.  Thunderstorms  Icing  Turbulence  Mountain Waves  Volcanic Ashes






- Airport Elevation : 19 ft
- IATA code : LCY


EGLC - London City

CURRENT METAR :
  • 110250Z AUTO 25009KT 9999 NCD 07/04 Q1008

EXPIRED METARs :
  • 110220Z AUTO 24009KT 9999 NCD 07/04 Q1009
  • 110150Z AUTO 25009KT 9999 NCD 08/04 Q1009
  • 110120Z AUTO 25009KT 9999 NCD 08/04 Q1008
  • 110050Z AUTO 25009KT 9999 NCD 08/04 Q1008
  • 110020Z AUTO 25010KT 9999 NCD 09/05 Q1008

TAF TAF EGLC
Valid from the 11 at 03:00 until the 11 at 12:00 UTC


110153Z 1103/1112 26010KT 9999 FEW030
BECMG 1110/1112 20005KT
ATIS : +44 20 7646 0224



MET'MAP, your aeronautical weather chart ! - Copyright ORBIFLY December 2007 - Disclaimer

ORBIFLY MET'MAP TEAM :

Programming & Development : Alexandra Zaïnal
Concept & original design : Baudouin d'Aumeries
Assistance for programming : Marc-Olivier Méhu
Technical & hardware support : Manuel Goepfert

Contact : metmap@orbifly.com




SOURCES & CREDITS :

   NOAA